createdAt,value
2022-09-23T00:00:07.501Z,4.70
2022-09-23T00:02:34.679Z,4.70
2022-09-23T00:05:01.878Z,5.15
2022-09-23T00:07:29.002Z,4.65
2022-09-23T00:09:56.469Z,4.80
2022-09-23T00:12:23.617Z,4.78
2022-09-23T00:14:50.806Z,4.45
2022-09-23T00:17:17.923Z,4.45
2022-09-23T00:19:45.126Z,4.78
2022-09-23T00:22:13.931Z,4.70
2022-09-23T00:24:41.041Z,4.43
2022-09-23T00:27:08.274Z,4.80
2022-09-23T00:29:36.945Z,4.15
2022-09-23T00:32:04.606Z,4.50
2022-09-23T00:34:32.863Z,4.97
2022-09-23T00:37:00.007Z,4.40
2022-09-23T00:39:27.157Z,4.78
2022-09-23T00:41:54.772Z,4.30
2022-09-23T00:44:40.459Z,5.13
2022-09-23T00:47:13.096Z,4.30
2022-09-23T00:49:40.506Z,4.07
2022-09-23T00:52:10.418Z,4.22
2022-09-23T00:54:38.282Z,4.38
2022-09-23T00:57:06.935Z,4.07
2022-09-23T00:59:34.257Z,3.85
2022-09-23T01:02:02.812Z,4.35
2022-09-23T01:04:30.528Z,4.18
2022-09-23T01:06:57.723Z,4.10
2022-09-23T01:09:25.334Z,4.13
2022-09-23T01:11:55.484Z,4.22
2022-09-23T01:14:22.655Z,3.60
2022-09-23T01:17:05.245Z,3.85
2022-09-23T01:19:45.027Z,3.88
2022-09-23T01:22:19.113Z,3.83
2022-09-23T01:24:49.320Z,4.07
2022-09-23T01:27:19.420Z,4.00
2022-09-23T01:30:05.368Z,3.67
2022-09-23T01:32:32.472Z,3.70
2022-09-23T01:35:02.634Z,4.60
2022-09-23T01:37:37.851Z,4.00
2022-09-23T01:40:05.099Z,3.78
2022-09-23T01:42:37.071Z,3.95
2022-09-23T01:45:10.985Z,4.22
2022-09-23T01:47:45.504Z,4.03
2022-09-23T01:50:37.134Z,3.95
2022-09-23T01:53:10.936Z,3.35
2022-09-23T01:55:40.840Z,3.90
2022-09-23T01:58:14.898Z,3.03
2022-09-23T02:00:50.995Z,3.63
2022-09-23T02:03:20.334Z,3.33
2022-09-23T02:05:53.857Z,3.88
2022-09-23T02:08:30.164Z,3.95
2022-09-23T02:11:18.150Z,4.10
2022-09-23T02:14:03.911Z,4.00
2022-09-23T02:16:34.120Z,3.72
2022-09-23T02:19:07.416Z,4.25
2022-09-23T02:21:36.432Z,3.90
2022-09-23T02:24:24.564Z,4.10
2022-09-23T02:27:07.048Z,3.95
2022-09-23T02:29:53.044Z,4.75
2022-09-23T02:32:40.459Z,4.45
2022-09-23T02:35:26.056Z,4.53
2022-09-23T02:38:09.447Z,4.32
2022-09-23T02:40:38.823Z,4.45
2022-09-23T02:43:25.205Z,4.20
2022-09-23T02:45:52.378Z,4.70
2022-09-23T02:48:22.485Z,4.40
2022-09-23T02:50:50.384Z,4.45
2022-09-23T02:53:17.592Z,4.75
2022-09-23T02:55:44.848Z,4.82
2022-09-23T02:58:14.000Z,4.10
2022-09-23T03:00:50.462Z,4.53
2022-09-23T03:03:37.958Z,5.28
2022-09-23T03:06:10.754Z,4.10
2022-09-23T03:08:56.857Z,5.00
2022-09-23T03:11:24.680Z,4.65
2022-09-23T03:13:53.011Z,4.60
2022-09-23T03:16:27.842Z,4.68
2022-09-23T03:21:26.015Z,4.47
2022-09-23T03:23:54.293Z,4.65
2022-09-23T03:26:26.331Z,4.65
2022-09-23T03:28:54.003Z,4.45
2022-09-23T03:31:21.307Z,4.28
2022-09-23T03:33:53.450Z,4.60
2022-09-23T03:36:42.787Z,4.50
2022-09-23T03:39:12.478Z,4.18
2022-09-23T03:41:43.929Z,4.10
2022-09-23T03:44:11.432Z,3.92
2022-09-23T03:46:38.579Z,4.25
2022-09-23T03:49:16.843Z,4.30
2022-09-23T03:51:44.782Z,4.32
2022-09-23T03:54:12.428Z,3.80
2022-09-23T03:56:39.552Z,3.65
2022-09-23T03:59:06.665Z,3.45
2022-09-23T04:01:33.834Z,3.90
2022-09-23T04:04:01.411Z,3.33
2022-09-23T04:06:28.759Z,3.13
2022-09-23T04:08:55.915Z,3.42
2022-09-23T04:11:22.996Z,3.42
2022-09-23T04:13:50.112Z,3.22
2022-09-23T04:16:17.262Z,2.90
2022-09-23T04:18:44.744Z,3.20
2022-09-23T04:21:11.875Z,3.05
2022-09-23T04:23:38.987Z,3.10
2022-09-23T04:26:06.361Z,3.08
2022-09-23T04:28:34.247Z,3.05
2022-09-23T04:31:04.741Z,3.70
2022-09-23T04:33:31.924Z,3.05
2022-09-23T04:35:59.038Z,3.03
2022-09-23T04:38:26.309Z,3.22
2022-09-23T04:40:54.018Z,2.65
2022-09-23T04:43:23.597Z,3.10
2022-09-23T04:46:05.701Z,2.97
2022-09-23T04:48:34.253Z,3.10
2022-09-23T04:51:12.997Z,3.08
2022-09-23T04:53:41.904Z,2.75
2022-09-23T04:56:14.836Z,2.97
2022-09-23T04:58:42.828Z,3.00
2022-09-23T05:01:14.879Z,2.70
2022-09-23T05:03:43.557Z,3.00
2022-09-23T05:06:13.852Z,3.08
2022-09-23T05:08:41.796Z,3.33
2022-09-23T05:11:10.269Z,2.80
2022-09-23T05:13:38.465Z,2.70
2022-09-23T05:16:12.759Z,3.05
2022-09-23T05:18:43.737Z,3.03
2022-09-23T05:21:12.813Z,3.10
2022-09-23T05:23:41.473Z,3.33
2022-09-23T05:26:11.053Z,3.88
2022-09-23T05:28:40.144Z,3.05
2022-09-23T05:31:09.201Z,3.03
2022-09-23T05:33:37.671Z,3.42
2022-09-23T05:36:05.656Z,3.63
2022-09-23T05:38:33.323Z,3.45
2022-09-23T05:41:02.080Z,3.30
2022-09-23T05:43:30.712Z,3.90
2022-09-23T05:46:17.857Z,3.55
2022-09-23T05:48:48.738Z,3.30
2022-09-23T05:51:19.743Z,3.78
2022-09-23T05:53:48.337Z,3.33
2022-09-23T05:56:17.880Z,3.40
2022-09-23T05:58:46.688Z,3.30
2022-09-23T06:01:16.101Z,3.55
2022-09-23T06:03:47.607Z,3.58
2022-09-23T06:06:15.596Z,3.65
2022-09-23T06:08:43.416Z,3.88
2022-09-23T06:11:12.433Z,5.47
2022-09-23T06:13:40.134Z,6.07
2022-09-23T06:16:13.630Z,5.80
2022-09-23T06:18:42.444Z,4.75
2022-09-23T06:21:13.612Z,3.95
2022-09-23T06:23:42.046Z,3.60
2022-09-23T06:26:11.291Z,3.78
2022-09-23T06:34:48.932Z,3.45
2022-09-23T06:37:26.149Z,3.38
2022-09-23T06:46:26.111Z,3.42
2022-09-23T06:49:36.609Z,3.03
2022-09-23T06:52:29.361Z,3.17
2022-09-23T06:55:07.523Z,3.28
2022-09-23T06:57:49.385Z,3.25
2022-09-23T07:04:17.400Z,3.35
2022-09-23T07:07:10.984Z,2.92
2022-09-23T07:09:46.158Z,2.72
2022-09-23T07:12:31.034Z,2.75
2022-09-23T07:15:20.886Z,2.80
2022-09-23T07:25:26.184Z,2.42
2022-09-23T07:28:43.241Z,2.55
2022-09-23T07:34:51.071Z,2.10
2022-09-23T07:40:58.339Z,2.08
2022-09-23T07:44:10.348Z,2.13
2022-09-23T07:46:38.092Z,2.30
2022-09-23T07:49:06.192Z,2.03
2022-09-23T07:51:36.648Z,2.20
2022-09-23T07:54:05.451Z,2.22
2022-09-23T07:56:33.009Z,2.13
2022-09-23T07:59:00.789Z,2.00
2022-09-23T08:01:29.463Z,2.20
2022-09-23T08:04:01.073Z,2.17
2022-09-23T08:06:28.424Z,1.90
2022-09-23T08:08:58.725Z,2.30
2022-09-23T08:11:27.064Z,2.10
2022-09-23T08:13:55.044Z,2.30
2022-09-23T08:16:23.032Z,2.33
2022-09-23T08:28:10.816Z,2.38
2022-09-23T08:31:47.218Z,1.88
2022-09-23T08:35:05.908Z,1.73
2022-09-23T08:37:38.865Z,1.90
2022-09-23T08:40:18.652Z,2.05
2022-09-23T08:46:18.197Z,1.83
2022-09-23T08:51:55.821Z,1.83
2022-09-23T08:54:48.334Z,2.00
2022-09-23T08:58:23.548Z,2.00
2022-09-23T09:00:44.826Z,2.20
2022-09-23T09:03:34.438Z,1.88
2022-09-23T09:06:01.750Z,2.05
2022-09-23T09:08:40.385Z,1.83
2022-09-23T09:11:10.823Z,1.92
2022-09-23T09:14:18.869Z,2.00
2022-09-23T09:17:10.993Z,1.70
2022-09-23T09:22:57.949Z,1.70
2022-09-23T09:25:42.204Z,2.22
2022-09-23T09:31:27.830Z,1.80
2022-09-23T09:34:03.364Z,1.90
2022-09-23T09:36:46.239Z,2.22
2022-09-23T09:39:17.467Z,1.90
2022-09-23T09:41:53.345Z,1.98
2022-09-23T09:44:37.072Z,2.10
2022-09-23T09:47:22.008Z,2.17
2022-09-23T09:49:52.177Z,2.28
2022-09-23T09:52:38.815Z,2.10
2022-09-23T09:55:51.260Z,2.40
2022-09-23T09:58:21.167Z,2.33
2022-09-23T10:00:50.573Z,2.40
2022-09-23T10:03:26.783Z,2.22
2022-09-23T10:06:01.112Z,2.85
2022-09-23T10:08:41.982Z,2.60
2022-09-23T10:11:41.369Z,2.30
2022-09-23T10:14:13.691Z,2.60
2022-09-23T10:16:44.242Z,2.80
2022-09-23T10:19:31.184Z,2.67
2022-09-23T10:22:02.724Z,2.50
2022-09-23T10:24:32.027Z,3.22
2022-09-23T10:27:07.785Z,2.67
2022-09-23T10:29:38.633Z,2.90
2022-09-23T10:32:25.715Z,2.70
2022-09-23T10:34:55.160Z,2.67
2022-09-23T10:37:28.709Z,2.30
2022-09-23T10:40:14.588Z,2.67
2022-09-23T10:43:09.042Z,2.70
2022-09-23T10:45:58.883Z,2.80
2022-09-23T10:48:41.445Z,2.90
2022-09-23T10:51:14.664Z,2.05
2022-09-23T10:53:42.054Z,2.70
2022-09-23T10:56:18.214Z,2.50
2022-09-23T10:59:28.056Z,2.28
2022-09-23T11:02:02.043Z,2.40
2022-09-23T11:04:35.994Z,2.30
2022-09-23T11:07:37.244Z,2.20
2022-09-23T11:10:29.126Z,2.05
2022-09-23T11:13:13.559Z,2.40
2022-09-23T11:15:59.320Z,2.10
2022-09-23T11:18:29.253Z,2.42
2022-09-23T11:21:11.763Z,2.35
2022-09-23T11:23:57.761Z,1.90
2022-09-23T11:26:35.056Z,1.90
2022-09-23T11:29:21.423Z,2.30
2022-09-23T11:32:11.667Z,2.05
2022-09-23T11:34:41.864Z,2.20
2022-09-23T11:37:15.056Z,2.03
2022-09-23T11:39:51.359Z,2.30
2022-09-23T11:42:26.085Z,2.20
2022-09-23T11:44:57.751Z,2.40
2022-09-23T11:47:45.320Z,2.15
2022-09-23T11:50:25.828Z,2.10
2022-09-23T11:52:58.743Z,1.85
2022-09-23T11:55:32.239Z,2.30
2022-09-23T11:58:10.059Z,2.28
2022-09-23T12:00:51.986Z,2.10
2022-09-23T12:03:41.744Z,1.98
2022-09-23T12:06:15.737Z,2.15
2022-09-23T12:08:45.911Z,2.20
2022-09-23T12:11:16.125Z,2.55
2022-09-23T12:14:01.751Z,2.30
2022-09-23T12:16:55.237Z,2.42
2022-09-23T12:19:37.780Z,2.22
2022-09-23T12:22:34.221Z,2.28
2022-09-23T12:25:01.375Z,2.08
2022-09-23T12:27:33.403Z,2.20
2022-09-23T12:30:02.657Z,2.75
2022-09-23T12:32:30.325Z,2.40
2022-09-23T12:34:57.736Z,2.35
2022-09-23T12:37:39.058Z,2.80
2022-09-23T12:40:10.409Z,2.60
2022-09-23T12:42:44.099Z,2.28
2022-09-23T12:45:19.891Z,2.95
2022-09-23T12:47:47.059Z,2.60
2022-09-23T12:50:32.606Z,2.63
2022-09-23T12:53:19.643Z,2.22
2022-09-23T12:55:51.866Z,2.80
2022-09-23T12:58:37.885Z,2.72
2022-09-23T13:01:09.602Z,2.70
2022-09-23T13:03:55.680Z,2.58
2022-09-23T13:06:41.046Z,2.83
2022-09-23T13:09:15.682Z,2.40
2022-09-23T13:11:43.980Z,3.03
2022-09-23T13:14:13.581Z,2.83
2022-09-23T13:16:45.972Z,3.00
2022-09-23T13:19:28.597Z,3.00
2022-09-23T13:22:00.649Z,2.50
2022-09-23T13:24:31.360Z,2.58
2022-09-23T13:27:10.836Z,2.25
2022-09-23T13:29:38.151Z,3.00
2022-09-23T13:32:06.338Z,3.13
2022-09-23T13:34:35.045Z,2.50
2022-09-23T13:37:22.385Z,3.25
2022-09-23T13:39:50.066Z,3.08
2022-09-23T13:42:27.109Z,2.80
2022-09-23T13:45:00.315Z,3.10
2022-09-23T13:47:29.122Z,2.97
2022-09-23T13:49:56.492Z,2.83
2022-09-23T13:52:29.871Z,2.85
2022-09-23T13:54:57.307Z,3.08
2022-09-23T13:57:27.508Z,2.80
2022-09-23T13:59:54.655Z,2.70
2022-09-23T14:02:25.617Z,2.85
2022-09-23T14:04:52.855Z,2.97
2022-09-23T14:07:20.361Z,3.60
2022-09-23T14:09:48.582Z,3.30
2022-09-23T14:12:21.896Z,2.80
2022-09-23T14:14:50.154Z,2.65
2022-09-23T14:17:18.808Z,3.08
2022-09-23T14:19:46.226Z,2.83
2022-09-23T14:22:23.980Z,2.70
2022-09-23T14:24:51.711Z,3.00
2022-09-23T14:27:21.490Z,3.40
2022-09-23T14:29:49.989Z,3.50
2022-09-23T14:32:24.048Z,3.20
2022-09-23T14:35:06.682Z,3.50
2022-09-23T14:38:02.694Z,3.50
2022-09-23T14:40:31.406Z,3.17
2022-09-23T14:43:05.803Z,3.90
2022-09-23T14:45:35.287Z,4.10
2022-09-23T14:48:15.306Z,2.92
2022-09-23T14:50:47.590Z,3.90
2022-09-23T14:53:23.853Z,3.03
2022-09-23T14:55:57.413Z,3.00
2022-09-23T14:58:28.043Z,3.17
2022-09-23T15:00:55.251Z,3.17
2022-09-23T15:03:22.863Z,2.97
2022-09-23T15:05:59.207Z,2.60
2022-09-23T15:08:27.455Z,2.88
2022-09-23T15:10:55.220Z,2.97
2022-09-23T15:13:32.895Z,2.45
2022-09-23T15:16:01.874Z,2.42
2022-09-23T15:18:30.287Z,2.88
2022-09-23T15:21:03.806Z,2.55
2022-09-23T15:23:34.603Z,2.20
2022-09-23T15:26:10.486Z,2.47
2022-09-23T15:28:37.761Z,2.42
2022-09-23T15:31:05.874Z,2.30
2022-09-23T15:33:34.342Z,2.70
2022-09-23T15:36:01.602Z,2.30
2022-09-23T15:38:28.911Z,2.33
2022-09-23T15:40:56.133Z,2.40
2022-09-23T15:43:25.058Z,2.70
2022-09-23T15:45:53.875Z,2.67
2022-09-23T15:48:22.740Z,2.80
2022-09-23T15:50:53.196Z,2.90
2022-09-23T15:53:30.877Z,3.25
2022-09-23T15:55:58.697Z,2.60
2022-09-23T15:58:29.037Z,2.83
2022-09-23T16:00:57.464Z,2.60
2022-09-23T16:03:28.935Z,2.22
2022-09-23T16:06:02.266Z,2.83
2022-09-23T16:08:30.079Z,2.45
2022-09-23T16:10:57.340Z,3.47
2022-09-23T16:13:24.649Z,2.78
2022-09-23T16:15:51.824Z,2.92
2022-09-23T16:18:19.151Z,2.58
2022-09-23T16:20:47.691Z,7.80
2022-09-23T16:23:14.772Z,3.75
2022-09-23T16:25:41.938Z,4.22
2022-09-23T16:28:12.405Z,3.75
2022-09-23T16:30:39.524Z,3.15
2022-09-23T16:33:06.669Z,3.17
2022-09-23T16:35:42.869Z,2.92
2022-09-23T16:38:13.734Z,3.38
2022-09-23T16:40:46.305Z,3.20
2022-09-23T16:43:14.332Z,2.83
2022-09-23T16:45:41.519Z,2.83
2022-09-23T16:48:11.381Z,2.92
2022-09-23T16:53:29.861Z,2.65
2022-09-23T16:56:00.019Z,2.80
2022-09-23T16:58:27.795Z,2.70
2022-09-23T17:01:17.449Z,3.22
2022-09-23T17:03:44.640Z,3.30
2022-09-23T17:06:13.066Z,3.63
2022-09-23T17:08:42.439Z,3.58
2022-09-23T17:11:15.004Z,3.40
2022-09-23T17:13:42.299Z,2.75
2022-09-23T17:16:11.569Z,3.13
2022-09-23T17:18:39.074Z,2.85
2022-09-23T17:21:07.636Z,2.85
2022-09-23T17:23:35.948Z,2.50
2022-09-23T17:26:05.487Z,2.90
2022-09-23T17:28:32.756Z,2.90
2022-09-23T17:31:04.436Z,2.97
2022-09-23T17:33:33.231Z,3.35
2022-09-23T17:36:01.662Z,2.92
2022-09-23T17:38:29.672Z,3.00
2022-09-23T17:41:00.959Z,2.80
2022-09-23T17:43:29.645Z,3.40
2022-09-23T17:45:57.745Z,3.10
2022-09-23T17:48:26.299Z,3.58
2022-09-23T17:51:04.532Z,2.75
2022-09-23T17:53:32.804Z,3.85
2022-09-23T17:56:04.698Z,4.40
2022-09-23T17:58:34.532Z,6.70
2022-09-23T18:01:01.814Z,4.50
2022-09-23T18:03:30.286Z,3.65
2022-09-23T18:06:17.696Z,3.25
2022-09-23T18:08:45.632Z,3.08
2022-09-23T18:11:26.983Z,3.45
2022-09-23T18:13:58.479Z,3.80
2022-09-23T18:16:26.834Z,3.53
2022-09-23T18:18:54.883Z,3.88
2022-09-23T18:21:22.643Z,3.72
2022-09-23T18:23:50.469Z,4.30
2022-09-23T18:26:19.038Z,3.85
2022-09-23T18:28:48.061Z,3.78
2022-09-23T18:31:16.176Z,3.90
2022-09-23T18:33:43.459Z,4.20
2022-09-23T18:36:10.875Z,3.33
2022-09-23T18:38:38.042Z,3.70
2022-09-23T18:41:05.291Z,3.45
2022-09-23T18:43:40.079Z,4.45
2022-09-23T18:46:13.887Z,4.03
2022-09-23T18:49:00.072Z,5.10
2022-09-23T18:51:29.153Z,4.22
2022-09-23T18:54:00.333Z,4.43
2022-09-23T18:56:34.565Z,3.90
2022-09-23T18:59:01.688Z,4.23
2022-09-23T19:01:28.886Z,4.20
2022-09-23T19:03:56.526Z,5.05
2022-09-23T19:06:23.712Z,5.13
2022-09-23T19:08:54.717Z,4.80
2022-09-23T19:11:22.728Z,5.30
2022-09-23T19:13:56.143Z,5.10
2022-09-23T19:16:23.718Z,5.22
2022-09-23T19:18:51.539Z,5.20
2022-09-23T19:21:20.448Z,4.80
2022-09-23T19:23:49.667Z,4.68
2022-09-23T19:26:21.722Z,4.57
2022-09-23T19:28:53.400Z,4.78
2022-09-23T19:31:29.181Z,4.55
2022-09-23T19:33:56.769Z,4.97
2022-09-23T19:36:24.881Z,4.47
2022-09-23T19:38:55.775Z,4.63
2022-09-23T19:41:22.965Z,5.05
2022-09-23T19:43:52.564Z,5.40
2022-09-23T19:46:19.704Z,5.75
2022-09-23T19:48:47.050Z,6.25
2022-09-23T19:51:14.809Z,6.20
2022-09-23T19:53:43.320Z,5.05
2022-09-23T19:56:10.420Z,5.15
2022-09-23T19:58:37.594Z,5.90
2022-09-23T20:01:07.544Z,6.18
2022-09-23T20:03:34.703Z,6.93
2022-09-23T20:06:01.925Z,5.57
2022-09-23T20:08:29.088Z,6.20
2022-09-23T20:10:56.237Z,7.38
2022-09-23T20:13:23.450Z,6.28
2022-09-23T20:15:50.621Z,6.38
2022-09-23T20:18:17.740Z,5.80
2022-09-23T20:20:44.830Z,6.43
2022-09-23T20:23:11.939Z,7.35
2022-09-23T20:25:57.785Z,7.40
2022-09-23T20:28:25.808Z,6.43
2022-09-23T20:30:58.376Z,6.68
2022-09-23T20:33:25.584Z,7.75
2022-09-23T20:35:53.462Z,7.82
2022-09-23T20:38:20.550Z,6.90
2022-09-23T20:40:54.678Z,7.47
2022-09-23T20:43:21.887Z,7.50
2022-09-23T20:45:52.997Z,7.30
2022-09-23T20:48:24.117Z,7.65
2022-09-23T20:50:51.390Z,7.70
2022-09-23T20:53:19.118Z,7.60
2022-09-23T20:55:53.754Z,8.80
2022-09-23T20:58:26.909Z,6.93
2022-09-23T21:00:54.568Z,7.15
2022-09-23T21:03:21.767Z,7.80
2022-09-23T21:05:49.825Z,8.63
2022-09-23T21:08:16.917Z,7.60
2022-09-23T21:10:43.999Z,8.02
2022-09-23T21:13:11.103Z,8.40
2022-09-23T21:15:38.279Z,7.07
2022-09-23T21:18:05.391Z,7.22
2022-09-23T21:20:32.508Z,7.25
2022-09-23T21:22:59.614Z,7.57
2022-09-23T21:25:28.500Z,7.32
2022-09-23T21:27:56.321Z,7.55
2022-09-23T21:30:23.427Z,7.10
2022-09-23T21:32:50.590Z,7.50
2022-09-23T21:35:18.843Z,7.50
2022-09-23T21:37:46.117Z,7.28
2022-09-23T21:40:31.929Z,7.55
2022-09-23T21:43:02.207Z,7.07
2022-09-23T21:45:29.372Z,7.40
2022-09-23T21:47:56.447Z,7.82
2022-09-23T21:50:23.578Z,7.68
2022-09-23T21:52:51.924Z,8.13
2022-09-23T21:55:19.145Z,8.38
2022-09-23T21:57:46.288Z,8.25
2022-09-23T22:00:13.647Z,7.82
2022-09-23T22:02:40.747Z,8.07
2022-09-23T22:05:08.000Z,7.40
2022-09-23T22:07:38.243Z,8.40
2022-09-23T22:10:06.008Z,8.25
2022-09-23T22:12:33.796Z,8.05
2022-09-23T22:15:00.906Z,8.63
2022-09-23T22:17:30.671Z,7.75
2022-09-23T22:19:58.486Z,7.72
2022-09-23T22:22:25.675Z,8.02
2022-09-23T22:24:53.009Z,7.20
2022-09-23T22:27:20.501Z,8.10
2022-09-23T22:30:06.842Z,7.40
2022-09-23T22:32:34.159Z,7.38
2022-09-23T22:35:01.276Z,7.00
2022-09-23T22:37:35.763Z,7.60
2022-09-23T22:40:04.026Z,7.05
2022-09-23T22:42:31.255Z,6.75
2022-09-23T22:44:58.384Z,6.43
2022-09-23T22:47:25.624Z,6.53
2022-09-23T22:49:55.566Z,6.57
2022-09-23T22:52:24.396Z,6.68
2022-09-23T22:54:52.594Z,6.18
2022-09-23T22:57:19.774Z,5.57
2022-09-23T22:59:50.350Z,5.38
2022-09-23T23:02:18.463Z,5.50
2022-09-23T23:04:47.465Z,5.28
2022-09-23T23:07:15.614Z,5.57
2022-09-23T23:09:42.704Z,5.38
2022-09-23T23:12:09.805Z,4.97
2022-09-23T23:14:38.210Z,5.35
2022-09-23T23:17:08.626Z,4.97
2022-09-23T23:19:36.916Z,4.80
2022-09-23T23:22:05.331Z,4.70
2022-09-23T23:24:32.508Z,4.55
2022-09-23T23:26:59.702Z,4.72
2022-09-23T23:29:27.784Z,5.10
2022-09-23T23:31:54.982Z,4.60
2022-09-23T23:34:23.020Z,4.80
2022-09-23T23:36:56.324Z,4.80
2022-09-23T23:39:24.227Z,5.30
2022-09-23T23:41:55.511Z,5.00
2022-09-23T23:44:23.711Z,4.95
2022-09-23T23:46:51.070Z,4.65
2022-09-23T23:49:18.295Z,4.68
2022-09-23T23:51:45.434Z,5.32
2022-09-23T23:54:12.797Z,5.03
2022-09-23T23:56:39.937Z,4.55
2022-09-23T23:59:07.322Z,4.38
